sensor_id;sensor_type;location;lat;lon;timestamp;P1;durP1;ratioP1;P2;durP2;ratioP2
51459;SDS011;37534;39.772;2.718;2023-02-15T00:01:34;29.05;;;22.80;;
51459;SDS011;37534;39.772;2.718;2023-02-15T00:04:00;35.78;;;27.38;;
51459;SDS011;37534;39.772;2.718;2023-02-15T00:06:27;36.28;;;26.90;;
51459;SDS011;37534;39.772;2.718;2023-02-15T00:08:53;172.38;;;118.75;;
51459;SDS011;37534;39.772;2.718;2023-02-15T00:11:19;91.13;;;60.42;;
51459;SDS011;37534;39.772;2.718;2023-02-15T00:14:21;58.15;;;38.65;;
51459;SDS011;37534;39.772;2.718;2023-02-15T00:16:48;42.15;;;32.83;;
51459;SDS011;37534;39.772;2.718;2023-02-15T00:19:16;33.83;;;27.85;;
51459;SDS011;37534;39.772;2.718;2023-02-15T00:21:43;31.83;;;27.30;;
51459;SDS011;37534;39.772;2.718;2023-02-15T00:24:10;36.40;;;29.25;;
51459;SDS011;37534;39.772;2.718;2023-02-15T00:26:38;36.95;;;29.05;;
51459;SDS011;37534;39.772;2.718;2023-02-15T00:29:05;28.90;;;25.00;;
51459;SDS011;37534;39.772;2.718;2023-02-15T00:31:31;34.65;;;26.83;;
51459;SDS011;37534;39.772;2.718;2023-02-15T00:34:09;47.78;;;39.20;;
51459;SDS011;37534;39.772;2.718;2023-02-15T00:36:38;186.10;;;121.20;;
51459;SDS011;37534;39.772;2.718;2023-02-15T00:39:04;110.72;;;78.22;;
51459;SDS011;37534;39.772;2.718;2023-02-15T00:41:30;104.55;;;62.38;;
51459;SDS011;37534;39.772;2.718;2023-02-15T00:43:56;42.42;;;34.92;;
51459;SDS011;37534;39.772;2.718;2023-02-15T00:46:22;43.53;;;32.17;;
51459;SDS011;37534;39.772;2.718;2023-02-15T00:48:47;37.75;;;32.03;;
51459;SDS011;37534;39.772;2.718;2023-02-15T00:51:13;32.80;;;26.55;;
51459;SDS011;37534;39.772;2.718;2023-02-15T00:53:39;43.75;;;32.17;;
51459;SDS011;37534;39.772;2.718;2023-02-15T00:56:04;35.83;;;24.67;;
51459;SDS011;37534;39.772;2.718;2023-02-15T00:58:30;27.92;;;23.77;;
51459;SDS011;37534;39.772;2.718;2023-02-15T01:01:01;27.67;;;21.52;;
51459;SDS011;37534;39.772;2.718;2023-02-15T01:03:34;25.17;;;21.88;;
51459;SDS011;37534;39.772;2.718;2023-02-15T01:06:00;27.52;;;23.63;;
51459;SDS011;37534;39.772;2.718;2023-02-15T01:08:26;47.03;;;36.88;;
51459;SDS011;37534;39.772;2.718;2023-02-15T01:10:52;38.05;;;33.75;;
51459;SDS011;37534;39.772;2.718;2023-02-15T01:13:18;38.15;;;30.30;;
51459;SDS011;37534;39.772;2.718;2023-02-15T01:15:44;33.70;;;27.80;;
51459;SDS011;37534;39.772;2.718;2023-02-15T01:18:10;95.20;;;60.20;;
51459;SDS011;37534;39.772;2.718;2023-02-15T01:20:37;51.85;;;37.92;;
51459;SDS011;37534;39.772;2.718;2023-02-15T01:23:06;36.22;;;28.05;;
51459;SDS011;37534;39.772;2.718;2023-02-15T01:25:32;31.60;;;28.10;;
51459;SDS011;37534;39.772;2.718;2023-02-15T01:27:59;33.45;;;25.42;;
51459;SDS011;37534;39.772;2.718;2023-02-15T01:30:25;36.80;;;26.35;;
51459;SDS011;37534;39.772;2.718;2023-02-15T01:32:50;24.45;;;21.95;;
51459;SDS011;37534;39.772;2.718;2023-02-15T01:35:16;24.10;;;20.33;;
51459;SDS011;37534;39.772;2.718;2023-02-15T01:37:41;31.65;;;20.42;;
51459;SDS011;37534;39.772;2.718;2023-02-15T01:40:08;38.78;;;25.60;;
51459;SDS011;37534;39.772;2.718;2023-02-15T01:42:38;35.85;;;29.02;;
51459;SDS011;37534;39.772;2.718;2023-02-15T01:45:05;26.73;;;22.38;;
51459;SDS011;37534;39.772;2.718;2023-02-15T01:47:45;21.20;;;18.85;;
51459;SDS011;37534;39.772;2.718;2023-02-15T01:50:20;21.65;;;19.42;;
51459;SDS011;37534;39.772;2.718;2023-02-15T01:55:30;22.88;;;18.85;;
51459;SDS011;37534;39.772;2.718;2023-02-15T01:57:59;37.43;;;25.13;;
51459;SDS011;37534;39.772;2.718;2023-02-15T02:00:25;27.60;;;21.45;;
51459;SDS011;37534;39.772;2.718;2023-02-15T02:02:52;28.00;;;22.25;;
51459;SDS011;37534;39.772;2.718;2023-02-15T02:05:20;23.45;;;19.88;;
51459;SDS011;37534;39.772;2.718;2023-02-15T02:07:46;28.50;;;21.77;;
51459;SDS011;37534;39.772;2.718;2023-02-15T02:10:17;35.95;;;24.88;;
51459;SDS011;37534;39.772;2.718;2023-02-15T02:12:48;29.80;;;22.90;;
51459;SDS011;37534;39.772;2.718;2023-02-15T02:15:16;22.60;;;17.67;;
51459;SDS011;37534;39.772;2.718;2023-02-15T02:28:09;18.83;;;15.00;;
51459;SDS011;37534;39.772;2.718;2023-02-15T02:30:53;14.57;;;13.05;;
51459;SDS011;37534;39.772;2.718;2023-02-15T02:42:39;12.85;;;10.45;;
51459;SDS011;37534;39.772;2.718;2023-02-15T02:47:44;12.43;;;9.55;;
51459;SDS011;37534;39.772;2.718;2023-02-15T02:50:15;10.15;;;9.13;;
51459;SDS011;37534;39.772;2.718;2023-02-15T02:52:50;8.70;;;7.85;;
51459;SDS011;37534;39.772;2.718;2023-02-15T02:55:22;8.77;;;8.00;;
51459;SDS011;37534;39.772;2.718;2023-02-15T02:58:09;10.45;;;8.75;;
51459;SDS011;37534;39.772;2.718;2023-02-15T03:00:38;9.35;;;8.52;;
51459;SDS011;37534;39.772;2.718;2023-02-15T03:03:11;9.25;;;8.30;;
51459;SDS011;37534;39.772;2.718;2023-02-15T03:05:41;11.05;;;8.88;;
51459;SDS011;37534;39.772;2.718;2023-02-15T03:08:11;8.73;;;7.95;;
51459;SDS011;37534;39.772;2.718;2023-02-15T03:10:46;7.63;;;6.97;;
51459;SDS011;37534;39.772;2.718;2023-02-15T03:13:15;8.45;;;5.68;;
51459;SDS011;37534;39.772;2.718;2023-02-15T03:15:41;6.82;;;6.22;;
51459;SDS011;37534;39.772;2.718;2023-02-15T03:18:31;6.47;;;5.78;;
51459;SDS011;37534;39.772;2.718;2023-02-15T03:21:19;7.45;;;5.00;;
51459;SDS011;37534;39.772;2.718;2023-02-15T03:23:59;5.32;;;4.93;;
51459;SDS011;37534;39.772;2.718;2023-02-15T03:28:57;5.28;;;4.85;;
51459;SDS011;37534;39.772;2.718;2023-02-15T03:31:26;6.45;;;5.88;;
51459;SDS011;37534;39.772;2.718;2023-02-15T03:33:58;7.65;;;5.82;;
51459;SDS011;37534;39.772;2.718;2023-02-15T03:36:33;6.20;;;5.60;;
51459;SDS011;37534;39.772;2.718;2023-02-15T03:41:32;6.88;;;6.13;;
51459;SDS011;37534;39.772;2.718;2023-02-15T03:44:06;5.72;;;5.13;;
51459;SDS011;37534;39.772;2.718;2023-02-15T03:47:15;11.25;;;5.47;;
51459;SDS011;37534;39.772;2.718;2023-02-15T03:50:00;5.65;;;5.13;;
51459;SDS011;37534;39.772;2.718;2023-02-15T03:52:29;4.90;;;4.50;;
51459;SDS011;37534;39.772;2.718;2023-02-15T03:54:57;5.72;;;4.68;;
51459;SDS011;37534;39.772;2.718;2023-02-15T04:00:14;8.27;;;4.95;;
51459;SDS011;37534;39.772;2.718;2023-02-15T04:05:35;5.00;;;4.60;;
51459;SDS011;37534;39.772;2.718;2023-02-15T04:08:01;13.13;;;7.00;;
51459;SDS011;37534;39.772;2.718;2023-02-15T04:10:27;7.18;;;6.50;;
51459;SDS011;37534;39.772;2.718;2023-02-15T04:13:11;7.68;;;5.43;;
51459;SDS011;37534;39.772;2.718;2023-02-15T04:15:37;6.07;;;5.47;;
51459;SDS011;37534;39.772;2.718;2023-02-15T04:18:21;13.60;;;9.85;;
51459;SDS011;37534;39.772;2.718;2023-02-15T04:21:05;9.48;;;8.63;;
51459;SDS011;37534;39.772;2.718;2023-02-15T04:23:49;8.82;;;8.02;;
51459;SDS011;37534;39.772;2.718;2023-02-15T04:26:33;7.15;;;5.75;;
51459;SDS011;37534;39.772;2.718;2023-02-15T04:28:59;6.60;;;5.78;;
51459;SDS011;37534;39.772;2.718;2023-02-15T04:31:24;6.18;;;5.68;;
51459;SDS011;37534;39.772;2.718;2023-02-15T04:33:50;6.20;;;5.60;;
51459;SDS011;37534;39.772;2.718;2023-02-15T04:36:15;5.97;;;5.03;;
51459;SDS011;37534;39.772;2.718;2023-02-15T04:38:41;6.88;;;6.15;;
51459;SDS011;37534;39.772;2.718;2023-02-15T04:41:06;6.30;;;5.35;;
51459;SDS011;37534;39.772;2.718;2023-02-15T04:43:32;6.13;;;5.43;;
51459;SDS011;37534;39.772;2.718;2023-02-15T04:45:58;8.18;;;6.30;;
51459;SDS011;37534;39.772;2.718;2023-02-15T04:48:24;5.43;;;4.80;;
51459;SDS011;37534;39.772;2.718;2023-02-15T04:50:52;5.00;;;4.57;;
51459;SDS011;37534;39.772;2.718;2023-02-15T04:53:18;5.40;;;4.90;;
51459;SDS011;37534;39.772;2.718;2023-02-15T04:55:43;5.93;;;4.80;;
51459;SDS011;37534;39.772;2.718;2023-02-15T04:58:09;8.45;;;5.75;;
51459;SDS011;37534;39.772;2.718;2023-02-15T05:00:35;7.72;;;5.53;;
51459;SDS011;37534;39.772;2.718;2023-02-15T05:03:00;7.68;;;5.10;;
51459;SDS011;37534;39.772;2.718;2023-02-15T05:05:26;6.97;;;4.68;;
51459;SDS011;37534;39.772;2.718;2023-02-15T05:07:52;6.82;;;6.13;;
51459;SDS011;37534;39.772;2.718;2023-02-15T05:10:17;7.18;;;5.82;;
51459;SDS011;37534;39.772;2.718;2023-02-15T05:12:43;5.75;;;5.18;;
51459;SDS011;37534;39.772;2.718;2023-02-15T05:15:08;7.25;;;5.72;;
51459;SDS011;37534;39.772;2.718;2023-02-15T05:17:34;6.65;;;5.07;;
51459;SDS011;37534;39.772;2.718;2023-02-15T05:20:00;6.78;;;6.07;;
51459;SDS011;37534;39.772;2.718;2023-02-15T05:22:25;7.63;;;5.32;;
51459;SDS011;37534;39.772;2.718;2023-02-15T05:24:51;6.80;;;5.50;;
51459;SDS011;37534;39.772;2.718;2023-02-15T05:27:35;7.00;;;5.68;;
51459;SDS011;37534;39.772;2.718;2023-02-15T05:30:19;5.40;;;4.90;;
51459;SDS011;37534;39.772;2.718;2023-02-15T05:32:44;7.88;;;5.60;;
51459;SDS011;37534;39.772;2.718;2023-02-15T05:35:14;6.28;;;4.22;;
51459;SDS011;37534;39.772;2.718;2023-02-15T05:37:40;6.38;;;4.68;;
51459;SDS011;37534;39.772;2.718;2023-02-15T05:40:07;5.57;;;4.95;;
51459;SDS011;37534;39.772;2.718;2023-02-15T05:42:33;6.22;;;4.65;;
51459;SDS011;37534;39.772;2.718;2023-02-15T05:44:59;5.90;;;5.30;;
51459;SDS011;37534;39.772;2.718;2023-02-15T05:47:24;8.93;;;5.53;;
51459;SDS011;37534;39.772;2.718;2023-02-15T05:49:50;11.38;;;6.32;;
51459;SDS011;37534;39.772;2.718;2023-02-15T05:52:16;9.07;;;6.35;;
51459;SDS011;37534;39.772;2.718;2023-02-15T05:54:41;6.93;;;6.05;;
51459;SDS011;37534;39.772;2.718;2023-02-15T05:57:07;7.80;;;6.43;;
51459;SDS011;37534;39.772;2.718;2023-02-15T05:59:32;11.75;;;8.27;;
51459;SDS011;37534;39.772;2.718;2023-02-15T06:01:58;11.73;;;8.00;;
51459;SDS011;37534;39.772;2.718;2023-02-15T06:04:23;12.52;;;8.85;;
51459;SDS011;37534;39.772;2.718;2023-02-15T06:06:49;27.63;;;8.02;;
51459;SDS011;37534;39.772;2.718;2023-02-15T06:09:14;23.75;;;8.60;;
51459;SDS011;37534;39.772;2.718;2023-02-15T06:11:43;16.25;;;12.07;;
51459;SDS011;37534;39.772;2.718;2023-02-15T06:14:09;14.57;;;11.77;;
51459;SDS011;37534;39.772;2.718;2023-02-15T06:16:35;20.45;;;12.45;;
51459;SDS011;37534;39.772;2.718;2023-02-15T06:19:01;15.82;;;12.13;;
51459;SDS011;37534;39.772;2.718;2023-02-15T06:21:27;11.30;;;7.93;;
51459;SDS011;37534;39.772;2.718;2023-02-15T06:23:53;8.70;;;7.70;;
51459;SDS011;37534;39.772;2.718;2023-02-15T06:26:19;10.80;;;7.93;;
51459;SDS011;37534;39.772;2.718;2023-02-15T06:28:47;11.13;;;9.93;;
51459;SDS011;37534;39.772;2.718;2023-02-15T06:31:13;8.80;;;7.15;;
51459;SDS011;37534;39.772;2.718;2023-02-15T06:33:38;8.73;;;7.72;;
51459;SDS011;37534;39.772;2.718;2023-02-15T06:36:04;11.57;;;8.95;;
51459;SDS011;37534;39.772;2.718;2023-02-15T06:38:30;10.52;;;7.45;;
51459;SDS011;37534;39.772;2.718;2023-02-15T06:40:56;9.68;;;8.02;;
51459;SDS011;37534;39.772;2.718;2023-02-15T06:43:21;9.85;;;8.27;;
51459;SDS011;37534;39.772;2.718;2023-02-15T06:45:47;11.27;;;8.43;;
51459;SDS011;37534;39.772;2.718;2023-02-15T06:48:13;12.65;;;7.93;;
51459;SDS011;37534;39.772;2.718;2023-02-15T06:50:39;15.13;;;9.07;;
51459;SDS011;37534;39.772;2.718;2023-02-15T06:53:05;11.73;;;9.90;;
51459;SDS011;37534;39.772;2.718;2023-02-15T06:55:31;16.40;;;12.27;;
51459;SDS011;37534;39.772;2.718;2023-02-15T06:57:56;31.08;;;12.30;;
51459;SDS011;37534;39.772;2.718;2023-02-15T07:00:22;12.98;;;11.65;;
51459;SDS011;37534;39.772;2.718;2023-02-15T07:02:52;26.30;;;14.60;;
51459;SDS011;37534;39.772;2.718;2023-02-15T07:05:22;15.07;;;10.85;;
51459;SDS011;37534;39.772;2.718;2023-02-15T07:07:48;13.27;;;9.90;;
51459;SDS011;37534;39.772;2.718;2023-02-15T07:10:14;12.75;;;10.50;;
51459;SDS011;37534;39.772;2.718;2023-02-15T07:12:40;10.15;;;8.73;;
51459;SDS011;37534;39.772;2.718;2023-02-15T07:15:13;10.48;;;9.48;;
51459;SDS011;37534;39.772;2.718;2023-02-15T07:17:41;13.13;;;10.10;;
51459;SDS011;37534;39.772;2.718;2023-02-15T07:20:11;12.68;;;10.05;;
51459;SDS011;37534;39.772;2.718;2023-02-15T07:25:05;24.88;;;9.93;;
51459;SDS011;37534;39.772;2.718;2023-02-15T07:27:33;14.55;;;9.30;;
51459;SDS011;37534;39.772;2.718;2023-02-15T07:29:59;18.02;;;10.45;;
51459;SDS011;37534;39.772;2.718;2023-02-15T07:32:29;14.32;;;9.13;;
51459;SDS011;37534;39.772;2.718;2023-02-15T07:34:55;12.20;;;11.13;;
51459;SDS011;37534;39.772;2.718;2023-02-15T07:37:21;18.73;;;16.30;;
51459;SDS011;37534;39.772;2.718;2023-02-15T07:39:46;15.10;;;13.10;;
51459;SDS011;37534;39.772;2.718;2023-02-15T07:42:12;12.93;;;11.73;;
51459;SDS011;37534;39.772;2.718;2023-02-15T07:44:37;18.52;;;16.48;;
51459;SDS011;37534;39.772;2.718;2023-02-15T07:47:03;24.55;;;17.40;;
51459;SDS011;37534;39.772;2.718;2023-02-15T07:49:29;21.40;;;16.20;;
51459;SDS011;37534;39.772;2.718;2023-02-15T07:51:54;20.17;;;14.68;;
51459;SDS011;37534;39.772;2.718;2023-02-15T07:54:20;18.70;;;15.68;;
51459;SDS011;37534;39.772;2.718;2023-02-15T07:56:45;18.88;;;12.85;;
51459;SDS011;37534;39.772;2.718;2023-02-15T07:59:11;18.63;;;12.68;;
51459;SDS011;37534;39.772;2.718;2023-02-15T08:01:37;15.85;;;12.02;;
51459;SDS011;37534;39.772;2.718;2023-02-15T08:04:04;28.90;;;13.40;;
51459;SDS011;37534;39.772;2.718;2023-02-15T08:06:32;16.23;;;11.77;;
51459;SDS011;37534;39.772;2.718;2023-02-15T08:08:59;14.63;;;12.75;;
51459;SDS011;37534;39.772;2.718;2023-02-15T08:11:30;16.65;;;14.88;;
51459;SDS011;37534;39.772;2.718;2023-02-15T08:16:39;21.00;;;13.00;;
51459;SDS011;37534;39.772;2.718;2023-02-15T08:19:20;28.05;;;13.18;;
51459;SDS011;37534;39.772;2.718;2023-02-15T08:24:20;29.80;;;16.23;;
51459;SDS011;37534;39.772;2.718;2023-02-15T08:26:48;19.50;;;15.73;;
51459;SDS011;37534;39.772;2.718;2023-02-15T08:29:15;25.02;;;14.52;;
51459;SDS011;37534;39.772;2.718;2023-02-15T08:31:41;26.10;;;19.30;;
51459;SDS011;37534;39.772;2.718;2023-02-15T08:34:08;30.00;;;21.13;;
51459;SDS011;37534;39.772;2.718;2023-02-15T08:36:35;18.65;;;15.52;;
51459;SDS011;37534;39.772;2.718;2023-02-15T08:39:02;31.42;;;21.67;;
51459;SDS011;37534;39.772;2.718;2023-02-15T08:41:33;39.35;;;29.08;;
51459;SDS011;37534;39.772;2.718;2023-02-15T08:44:05;36.65;;;23.17;;
51459;SDS011;37534;39.772;2.718;2023-02-15T08:46:36;44.25;;;22.27;;
51459;SDS011;37534;39.772;2.718;2023-02-15T08:49:03;35.17;;;22.30;;
51459;SDS011;37534;39.772;2.718;2023-02-15T08:51:30;25.10;;;19.95;;
51459;SDS011;37534;39.772;2.718;2023-02-15T08:54:02;25.00;;;18.63;;
51459;SDS011;37534;39.772;2.718;2023-02-15T08:56:31;20.00;;;16.80;;
51459;SDS011;37534;39.772;2.718;2023-02-15T08:58:59;20.75;;;15.60;;
51459;SDS011;37534;39.772;2.718;2023-02-15T09:01:26;19.95;;;15.38;;
51459;SDS011;37534;39.772;2.718;2023-02-15T09:03:57;14.30;;;11.45;;
51459;SDS011;37534;39.772;2.718;2023-02-15T09:06:25;10.13;;;9.10;;
51459;SDS011;37534;39.772;2.718;2023-02-15T09:08:52;13.15;;;10.48;;
51459;SDS011;37534;39.772;2.718;2023-02-15T09:11:26;13.23;;;11.90;;
51459;SDS011;37534;39.772;2.718;2023-02-15T09:13:54;19.05;;;13.77;;
51459;SDS011;37534;39.772;2.718;2023-02-15T09:16:22;16.05;;;12.77;;
51459;SDS011;37534;39.772;2.718;2023-02-15T09:18:48;13.18;;;11.18;;
51459;SDS011;37534;39.772;2.718;2023-02-15T09:21:16;14.30;;;12.50;;
51459;SDS011;37534;39.772;2.718;2023-02-15T09:23:44;34.22;;;22.52;;
51459;SDS011;37534;39.772;2.718;2023-02-15T09:26:13;23.98;;;18.23;;
51459;SDS011;37534;39.772;2.718;2023-02-15T09:28:40;16.10;;;14.48;;
51459;SDS011;37534;39.772;2.718;2023-02-15T09:31:11;18.92;;;13.68;;
51459;SDS011;37534;39.772;2.718;2023-02-15T09:33:43;26.83;;;16.85;;
51459;SDS011;37534;39.772;2.718;2023-02-15T09:36:21;77.65;;;44.17;;
51459;SDS011;37534;39.772;2.718;2023-02-15T09:38:54;28.63;;;17.58;;
51459;SDS011;37534;39.772;2.718;2023-02-15T09:54:04;8.77;;;7.88;;
51459;SDS011;37534;39.772;2.718;2023-02-15T09:56:58;13.32;;;7.93;;
51459;SDS011;37534;39.772;2.718;2023-02-15T09:59:55;9.15;;;6.57;;
51459;SDS011;37534;39.772;2.718;2023-02-15T10:02:40;9.88;;;5.88;;
51459;SDS011;37534;39.772;2.718;2023-02-15T10:10:39;8.65;;;7.93;;
51459;SDS011;37534;39.772;2.718;2023-02-15T10:18:46;7.20;;;5.82;;
51459;SDS011;37534;39.772;2.718;2023-02-15T10:21:33;5.63;;;3.35;;
51459;SDS011;37534;39.772;2.718;2023-02-15T10:26:48;8.20;;;3.78;;
51459;SDS011;37534;39.772;2.718;2023-02-15T10:37:46;3.42;;;2.28;;
51459;SDS011;37534;39.772;2.718;2023-02-15T10:40:35;1.90;;;1.80;;
51459;SDS011;37534;39.772;2.718;2023-02-15T10:43:28;3.42;;;1.88;;
51459;SDS011;37534;39.772;2.718;2023-02-15T10:46:37;5.60;;;2.28;;
51459;SDS011;37534;39.772;2.718;2023-02-15T10:55:16;2.65;;;2.38;;
51459;SDS011;37534;39.772;2.718;2023-02-15T11:06:04;2.25;;;1.88;;
51459;SDS011;37534;39.772;2.718;2023-02-15T11:09:18;11.05;;;7.25;;
51459;SDS011;37534;39.772;2.718;2023-02-15T11:11:41;2.85;;;2.30;;
51459;SDS011;37534;39.772;2.718;2023-02-15T11:17:08;3.75;;;2.92;;
51459;SDS011;37534;39.772;2.718;2023-02-15T11:19:39;3.53;;;2.72;;
51459;SDS011;37534;39.772;2.718;2023-02-15T11:22:12;4.90;;;3.63;;
51459;SDS011;37534;39.772;2.718;2023-02-15T11:24:44;7.88;;;2.72;;
51459;SDS011;37534;39.772;2.718;2023-02-15T11:29:38;15.95;;;13.07;;
51459;SDS011;37534;39.772;2.718;2023-02-15T11:32:18;18.40;;;13.48;;
51459;SDS011;37534;39.772;2.718;2023-02-15T11:34:49;13.23;;;8.27;;
51459;SDS011;37534;39.772;2.718;2023-02-15T11:37:20;4.03;;;3.30;;
51459;SDS011;37534;39.772;2.718;2023-02-15T11:39:53;11.75;;;7.18;;
51459;SDS011;37534;39.772;2.718;2023-02-15T11:42:21;42.40;;;26.27;;
51459;SDS011;37534;39.772;2.718;2023-02-15T11:45:02;9.00;;;5.07;;
51459;SDS011;37534;39.772;2.718;2023-02-15T11:47:39;6.32;;;4.43;;
51459;SDS011;37534;39.772;2.718;2023-02-15T11:50:05;5.53;;;4.75;;
51459;SDS011;37534;39.772;2.718;2023-02-15T11:52:36;11.88;;;7.68;;
51459;SDS011;37534;39.772;2.718;2023-02-15T11:55:02;3.67;;;3.20;;
51459;SDS011;37534;39.772;2.718;2023-02-15T11:57:39;3.60;;;2.13;;
51459;SDS011;37534;39.772;2.718;2023-02-15T12:02:51;1.80;;;1.70;;
51459;SDS011;37534;39.772;2.718;2023-02-15T12:05:19;2.35;;;1.77;;
51459;SDS011;37534;39.772;2.718;2023-02-15T12:07:55;2.05;;;1.73;;
51459;SDS011;37534;39.772;2.718;2023-02-15T12:10:28;6.47;;;2.28;;
51459;SDS011;37534;39.772;2.718;2023-02-15T12:13:20;3.03;;;1.80;;
51459;SDS011;37534;39.772;2.718;2023-02-15T12:15:46;1.70;;;1.60;;
51459;SDS011;37534;39.772;2.718;2023-02-15T12:18:21;2.83;;;2.47;;
51459;SDS011;37534;39.772;2.718;2023-02-15T12:21:10;3.00;;;2.47;;
51459;SDS011;37534;39.772;2.718;2023-02-15T12:23:50;4.05;;;2.47;;
51459;SDS011;37534;39.772;2.718;2023-02-15T12:26:27;2.72;;;2.28;;
51459;SDS011;37534;39.772;2.718;2023-02-15T12:28:59;3.45;;;2.35;;
51459;SDS011;37534;39.772;2.718;2023-02-15T12:31:44;10.90;;;2.17;;
51459;SDS011;37534;39.772;2.718;2023-02-15T12:34:18;3.45;;;2.95;;
51459;SDS011;37534;39.772;2.718;2023-02-15T12:36:49;19.25;;;10.57;;
51459;SDS011;37534;39.772;2.718;2023-02-15T12:39:25;14.55;;;11.18;;
51459;SDS011;37534;39.772;2.718;2023-02-15T12:44:22;2.30;;;2.10;;
51459;SDS011;37534;39.772;2.718;2023-02-15T12:47:02;4.63;;;2.95;;
51459;SDS011;37534;39.772;2.718;2023-02-15T12:49:35;14.07;;;6.80;;
51459;SDS011;37534;39.772;2.718;2023-02-15T12:52:13;17.00;;;9.82;;
51459;SDS011;37534;39.772;2.718;2023-02-15T12:54:49;3.88;;;3.00;;
51459;SDS011;37534;39.772;2.718;2023-02-15T12:59:54;9.00;;;5.53;;
51459;SDS011;37534;39.772;2.718;2023-02-15T13:02:37;6.53;;;5.32;;
51459;SDS011;37534;39.772;2.718;2023-02-15T13:13:24;3.30;;;2.67;;
51459;SDS011;37534;39.772;2.718;2023-02-15T13:15:53;2.33;;;2.10;;
51459;SDS011;37534;39.772;2.718;2023-02-15T13:20:58;4.72;;;2.22;;
51459;SDS011;37534;39.772;2.718;2023-02-15T13:23:31;4.22;;;3.20;;
51459;SDS011;37534;39.772;2.718;2023-02-15T13:25:57;7.13;;;2.60;;
51459;SDS011;37534;39.772;2.718;2023-02-15T13:28:41;4.15;;;2.75;;
51459;SDS011;37534;39.772;2.718;2023-02-15T13:31:18;4.80;;;3.47;;
51459;SDS011;37534;39.772;2.718;2023-02-15T13:33:49;2.90;;;2.70;;
51459;SDS011;37534;39.772;2.718;2023-02-15T13:39:36;6.25;;;1.88;;
51459;SDS011;37534;39.772;2.718;2023-02-15T13:56:02;5.07;;;2.00;;
51459;SDS011;37534;39.772;2.718;2023-02-15T14:06:50;1.83;;;1.58;;
51459;SDS011;37534;39.772;2.718;2023-02-15T14:09:26;2.42;;;2.22;;
51459;SDS011;37534;39.772;2.718;2023-02-15T14:17:47;3.38;;;2.22;;
51459;SDS011;37534;39.772;2.718;2023-02-15T14:23:17;1.90;;;1.67;;
51459;SDS011;37534;39.772;2.718;2023-02-15T14:26:01;1.75;;;1.50;;
51459;SDS011;37534;39.772;2.718;2023-02-15T14:28:41;2.22;;;1.73;;
51459;SDS011;37534;39.772;2.718;2023-02-15T14:31:11;2.30;;;1.77;;
51459;SDS011;37534;39.772;2.718;2023-02-15T14:34:00;2.17;;;2.08;;
51459;SDS011;37534;39.772;2.718;2023-02-15T14:36:25;2.38;;;2.20;;
51459;SDS011;37534;39.772;2.718;2023-02-15T14:47:39;3.10;;;2.80;;
51459;SDS011;37534;39.772;2.718;2023-02-15T14:55:41;2.55;;;2.15;;
51459;SDS011;37534;39.772;2.718;2023-02-15T14:58:10;2.10;;;1.70;;
51459;SDS011;37534;39.772;2.718;2023-02-15T15:00:38;5.07;;;3.55;;
51459;SDS011;37534;39.772;2.718;2023-02-15T15:03:18;7.28;;;4.90;;
51459;SDS011;37534;39.772;2.718;2023-02-15T15:05:48;9.02;;;6.93;;
51459;SDS011;37534;39.772;2.718;2023-02-15T15:08:33;4.25;;;3.90;;
51459;SDS011;37534;39.772;2.718;2023-02-15T15:13:56;2.22;;;2.05;;
51459;SDS011;37534;39.772;2.718;2023-02-15T15:18:56;2.35;;;2.15;;
51459;SDS011;37534;39.772;2.718;2023-02-15T15:30:46;5.03;;;3.47;;
51459;SDS011;37534;39.772;2.718;2023-02-15T15:38:17;6.38;;;3.10;;
51459;SDS011;37534;39.772;2.718;2023-02-15T15:46:47;2.92;;;2.47;;
51459;SDS011;37534;39.772;2.718;2023-02-15T15:49:18;2.85;;;2.63;;
51459;SDS011;37534;39.772;2.718;2023-02-15T15:51:46;2.72;;;2.50;;
51459;SDS011;37534;39.772;2.718;2023-02-15T15:54:19;7.10;;;2.40;;
51459;SDS011;37534;39.772;2.718;2023-02-15T15:56:53;4.15;;;3.75;;
51459;SDS011;37534;39.772;2.718;2023-02-15T15:59:23;11.55;;;4.13;;
51459;SDS011;37534;39.772;2.718;2023-02-15T16:01:52;5.50;;;3.92;;
51459;SDS011;37534;39.772;2.718;2023-02-15T16:04:27;4.95;;;3.67;;
51459;SDS011;37534;39.772;2.718;2023-02-15T16:07:05;8.75;;;5.53;;
51459;SDS011;37534;39.772;2.718;2023-02-15T16:09:57;6.35;;;5.28;;
51459;SDS011;37534;39.772;2.718;2023-02-15T16:12:25;39.47;;;28.90;;
51459;SDS011;37534;39.772;2.718;2023-02-15T16:14:53;28.63;;;19.67;;
51459;SDS011;37534;39.772;2.718;2023-02-15T16:17:20;9.88;;;8.63;;
51459;SDS011;37534;39.772;2.718;2023-02-15T16:19:49;11.27;;;8.00;;
51459;SDS011;37534;39.772;2.718;2023-02-15T16:22:20;8.18;;;6.47;;
51459;SDS011;37534;39.772;2.718;2023-02-15T16:27:37;10.27;;;9.25;;
51459;SDS011;37534;39.772;2.718;2023-02-15T16:33:07;27.45;;;19.73;;
51459;SDS011;37534;39.772;2.718;2023-02-15T16:35:58;26.17;;;18.42;;
51459;SDS011;37534;39.772;2.718;2023-02-15T16:38:53;20.70;;;14.10;;
51459;SDS011;37534;39.772;2.718;2023-02-15T16:41:32;37.63;;;23.13;;
51459;SDS011;37534;39.772;2.718;2023-02-15T16:44:00;27.17;;;19.67;;
51459;SDS011;37534;39.772;2.718;2023-02-15T16:46:32;37.40;;;25.92;;
51459;SDS011;37534;39.772;2.718;2023-02-15T16:49:48;30.52;;;23.65;;
51459;SDS011;37534;39.772;2.718;2023-02-15T16:51:59;16.63;;;14.35;;
51459;SDS011;37534;39.772;2.718;2023-02-15T16:54:31;33.03;;;25.42;;
51459;SDS011;37534;39.772;2.718;2023-02-15T16:56:59;20.08;;;18.00;;
51459;SDS011;37534;39.772;2.718;2023-02-15T16:59:35;21.90;;;15.93;;
51459;SDS011;37534;39.772;2.718;2023-02-15T17:02:12;19.10;;;15.85;;
51459;SDS011;37534;39.772;2.718;2023-02-15T17:04:42;23.77;;;15.65;;
51459;SDS011;37534;39.772;2.718;2023-02-15T17:07:18;29.30;;;16.27;;
51459;SDS011;37534;39.772;2.718;2023-02-15T17:09:51;18.48;;;13.23;;
51459;SDS011;37534;39.772;2.718;2023-02-15T17:20:45;30.70;;;24.38;;
51459;SDS011;37534;39.772;2.718;2023-02-15T17:23:23;24.67;;;19.27;;
51459;SDS011;37534;39.772;2.718;2023-02-15T17:25:56;22.95;;;18.70;;
51459;SDS011;37534;39.772;2.718;2023-02-15T17:28:24;60.55;;;42.85;;
51459;SDS011;37534;39.772;2.718;2023-02-15T17:30:52;22.23;;;19.15;;
51459;SDS011;37534;39.772;2.718;2023-02-15T17:33:35;31.45;;;19.52;;
51459;SDS011;37534;39.772;2.718;2023-02-15T17:41:22;18.45;;;13.77;;
51459;SDS011;37534;39.772;2.718;2023-02-15T17:43:48;15.45;;;13.30;;
51459;SDS011;37534;39.772;2.718;2023-02-15T17:46:13;15.93;;;13.68;;
51459;SDS011;37534;39.772;2.718;2023-02-15T17:48:41;14.75;;;13.15;;
51459;SDS011;37534;39.772;2.718;2023-02-15T17:51:10;17.23;;;15.40;;
51459;SDS011;37534;39.772;2.718;2023-02-15T17:53:37;19.75;;;16.52;;
51459;SDS011;37534;39.772;2.718;2023-02-15T17:56:03;21.08;;;18.75;;
51459;SDS011;37534;39.772;2.718;2023-02-15T17:58:34;31.13;;;21.63;;
51459;SDS011;37534;39.772;2.718;2023-02-15T18:01:02;25.73;;;20.05;;
51459;SDS011;37534;39.772;2.718;2023-02-15T18:03:51;25.08;;;21.25;;
51459;SDS011;37534;39.772;2.718;2023-02-15T18:06:40;28.67;;;20.35;;
51459;SDS011;37534;39.772;2.718;2023-02-15T18:09:25;25.95;;;23.30;;
51459;SDS011;37534;39.772;2.718;2023-02-15T18:14:55;21.08;;;18.85;;
51459;SDS011;37534;39.772;2.718;2023-02-15T18:20:03;20.83;;;18.65;;
51459;SDS011;37534;39.772;2.718;2023-02-15T18:22:42;27.40;;;21.95;;
51459;SDS011;37534;39.772;2.718;2023-02-15T18:25:12;31.10;;;22.77;;
51459;SDS011;37534;39.772;2.718;2023-02-15T18:27:38;29.98;;;26.63;;
51459;SDS011;37534;39.772;2.718;2023-02-15T18:30:05;37.72;;;32.05;;
51459;SDS011;37534;39.772;2.718;2023-02-15T18:32:33;35.10;;;28.73;;